Hauptseite
METAR-TAF:

METAR-TAF

Flughäfen :

Landsberg, Deutschland

Fliegerhorst Landsberg/Lech

Breite: 48-04N, Länge: 010-54E, Höhe: 623 m

Beobachtung

Neuester Wetterbericht von vor 1 Stunde und 2 Minuten, um 01:20 UTC
Wind 12 kt aus West/Südwest
Temperatur 6°C
Luftfeuchtigkeit 87%
Luftdruck 1018 hPa
Sichtweite 10 km oder mehr
Leicht bewölkt in der Höhe von 1200 ft
Durchbrochene Bewölkung in der Höhe von 2800 ft
Durchbrochene Bewölkung in der Höhe von 10000 ft

METAR: ETSA 230120Z 24012KT 9999 FEW012 BKN028 BKN100 06/04 Q1018 BLU

Zeit: 04:22 (02:22 UTC)


TAF: fehlend

Wetterbeobachtungen und Prognosen von mehr als 4000 Flughäfen (METAR und TAF Bericht).

Die verfügbaren Stationen werden durch gelbe und rote Markierungen auf der Karte dargestellt.

Führen Sie die Maus auf sie, um den Namen der Station zu sehen.

Darauf klicken, um die Beobachtung von Wetterbeobachtungen und Prognosen zu sehen.

Um die Karte zu ändern : klicken Sie auf den grünen Tasten mit einem schwarzen Kreuz Zum Vergrößern, auf den grünen Button mit einem Gedankenstrich zu verkleinern, oder auf die grünen Pfeile für benachbarte Karten.


METAR-TAF: